createdAt,value
2023-05-23T21:04:09.004Z,99230.78
2023-05-23T21:06:35.847Z,99229.41
2023-05-23T21:09:02.541Z,99229.13
2023-05-23T21:11:29.096Z,99235.09
2023-05-23T21:13:56.316Z,99235.28
2023-05-23T21:16:22.876Z,99229.53
2023-05-23T21:18:49.426Z,99230.66
2023-05-23T21:21:16.029Z,99239.72
2023-05-23T21:23:42.646Z,99240.41
2023-05-23T21:26:09.166Z,99246.25
2023-05-23T21:28:36.492Z,99245.47
2023-05-23T21:31:03.605Z,99248.44
2023-05-23T21:33:30.257Z,99247.88
2023-05-23T21:35:58.105Z,99243.13
2023-05-23T21:38:26.508Z,99243.38
2023-05-23T21:40:52.997Z,99244.50
2023-05-23T21:43:19.536Z,99242.91
2023-05-23T21:45:46.029Z,99242.09
2023-05-23T21:48:12.566Z,99244.03
2023-05-23T21:50:39.234Z,99233.59
2023-05-23T21:53:05.844Z,99237.28
2023-05-23T21:55:32.347Z,99232.78
2023-05-23T21:57:58.987Z,99236.81
2023-05-23T22:00:25.502Z,99239.69
2023-05-23T22:02:52.524Z,99233.81
2023-05-23T22:05:19.142Z,99230.38
2023-05-23T22:07:45.662Z,99229.81
2023-05-23T22:10:12.164Z,99230.03
2023-05-23T22:12:38.770Z,99236.22
2023-05-23T22:15:06.678Z,99233.03
2023-05-23T22:17:33.176Z,99231.19
2023-05-23T22:20:00.660Z,99225.53
2023-05-23T22:22:27.198Z,99224.28
2023-05-23T22:24:53.759Z,99219.22
2023-05-23T22:27:20.349Z,99227.72
2023-05-23T22:29:46.900Z,99222.44
2023-05-23T22:32:13.410Z,99221.84
2023-05-23T22:34:40.931Z,99221.06
2023-05-23T22:37:07.426Z,99223.13
2023-05-23T22:39:33.961Z,99221.84
2023-05-23T22:42:00.545Z,99221.06
2023-05-23T22:44:27.064Z,99221.84
2023-05-23T22:46:53.689Z,99228.75
2023-05-23T22:49:20.292Z,99222.66
2023-05-23T22:51:46.889Z,99225.63
2023-05-23T22:54:13.521Z,99231.19
2023-05-23T22:56:40.068Z,99233.25
2023-05-23T22:59:06.611Z,99230.28
2023-05-23T23:01:33.261Z,99227.06
2023-05-23T23:04:00.174Z,99233.53
2023-05-23T23:06:26.752Z,99230.31
2023-05-23T23:08:53.261Z,99233.91
2023-05-23T23:11:20.089Z,99223.47
2023-05-23T23:13:46.771Z,99217.69
2023-05-23T23:16:13.328Z,99217.13
2023-05-23T23:18:39.914Z,99218.50
2023-05-23T23:21:06.430Z,99221.38
2023-05-23T23:23:32.911Z,99218.28
2023-05-23T23:25:59.573Z,99217.31
2023-05-23T23:28:26.113Z,99209.38
2023-05-23T23:30:52.675Z,99204.91
2023-05-23T23:33:19.223Z,99206.75
2023-05-23T23:35:45.748Z,99196.63
2023-05-23T23:38:12.271Z,99196.84
2023-05-23T23:40:39.026Z,99199.84
2023-05-23T23:43:05.548Z,99198.69
2023-05-23T23:45:32.046Z,99197.09
2023-05-23T23:47:59.049Z,99191.81
2023-05-23T23:50:25.556Z,99190.19
2023-05-23T23:52:52.245Z,99189.06
2023-05-23T23:55:18.788Z,99195.97
2023-05-23T23:57:45.440Z,99184.81
